Iqaluit, Canada
Current Conditions -  °F | °C
As of 6:00 AM on Sunday 21 Dec 2014 (Local Time) from CYFB Reporting Station
Ice Pellets Ice Pellets  
Wind Chill: -11°   Ceiling: Unl
Heat Index: -11°   Visibility: 15mi
Dew Point: -17°   Wind: 2mph
Humidity: 77%   Direction: 10°N
Pressure: 29.93"   Gusts: NA
Location:  63.75°N, 68.52°W
Report Text: CYFB 211100Z 01002KT 15SM IC FEW044 SCT120 M24/M27 A2993 RMK SC1AC2 SLP140
Loading
Personal Weather Stations






























Interactive Weather Map New forecast layout! Learn more

10-Day Weather Forecast

Advertisements
Track Severe Weather on mobile